createdAt,value
2018-04-23T00:02:10.964Z,64.10
2018-04-23T00:04:37.152Z,64.10
2018-04-23T00:07:03.347Z,63.70
2018-04-23T00:09:29.691Z,63.60
2018-04-23T00:11:55.896Z,63.40
2018-04-23T00:14:22.150Z,62.80
2018-04-23T00:16:48.368Z,62.50
2018-04-23T00:19:14.683Z,61.90
2018-04-23T00:21:40.891Z,61.30
2018-04-23T00:24:07.085Z,60.80
2018-04-23T00:26:34.054Z,60.00
2018-04-23T00:29:00.258Z,59.90
2018-04-23T00:31:26.686Z,59.60
2018-04-23T00:33:53.671Z,59.20
2018-04-23T00:36:19.856Z,59.10
2018-04-23T00:38:46.067Z,58.90
2018-04-23T00:41:12.312Z,58.90
2018-04-23T00:43:38.494Z,58.80
2018-04-23T00:46:04.683Z,58.70
2018-04-23T00:48:31.641Z,58.90
2018-04-23T00:50:58.620Z,59.50
2018-04-23T00:53:37.279Z,59.50
2018-04-23T00:56:03.679Z,60.30
2018-04-23T00:58:29.997Z,60.90
2018-04-23T01:00:57.007Z,62.50
2018-04-23T01:03:23.197Z,62.50
2018-04-23T01:05:49.366Z,62.30
2018-04-23T01:08:15.571Z,62.60
2018-04-23T01:10:42.507Z,63.30
2018-04-23T01:13:08.694Z,63.30
2018-04-23T01:15:34.898Z,63.60
2018-04-23T01:18:01.835Z,64.10
2018-04-23T01:20:28.160Z,64.10
2018-04-23T01:22:54.431Z,64.60
2018-04-23T01:25:20.658Z,64.40
2018-04-23T01:27:46.849Z,64.60
2018-04-23T01:30:13.831Z,64.60
2018-04-23T01:32:40.016Z,64.60
2018-04-23T01:35:06.207Z,65.10
2018-04-23T01:37:32.406Z,64.90
2018-04-23T01:39:58.634Z,64.90
2018-04-23T01:42:25.572Z,65.90
2018-04-23T01:44:51.848Z,65.00
2018-04-23T01:47:18.034Z,65.00
2018-04-23T01:49:44.216Z,64.90
2018-04-23T01:52:10.421Z,64.50
2018-04-23T01:54:36.615Z,64.20
2018-04-23T01:57:03.563Z,64.00
2018-04-23T01:59:30.571Z,64.10
2018-04-23T02:01:58.219Z,64.00
2018-04-23T02:04:24.414Z,63.90
2018-04-23T02:06:50.711Z,64.20
2018-04-23T02:09:16.933Z,64.10
2018-04-23T02:11:43.866Z,64.20
2018-04-23T02:14:10.060Z,64.10
2018-04-23T02:16:36.306Z,63.90
2018-04-23T02:19:02.510Z,63.80
2018-04-23T02:21:28.794Z,63.50
2018-04-23T02:23:55.024Z,63.30
2018-04-23T02:26:21.280Z,62.90
2018-04-23T02:28:47.499Z,62.70
2018-04-23T02:31:13.764Z,62.30
2018-04-23T02:33:40.371Z,61.70
2018-04-23T02:36:06.563Z,61.50
2018-04-23T02:38:33.573Z,61.00
2018-04-23T02:40:59.870Z,60.90
2018-04-23T02:43:26.111Z,60.50
2018-04-23T02:45:52.320Z,59.80
2018-04-23T02:48:18.522Z,59.90
2018-04-23T02:50:44.747Z,59.80
2018-04-23T02:53:10.943Z,59.70
2018-04-23T02:55:37.099Z,59.50
2018-04-23T02:58:04.063Z,59.20
2018-04-23T03:00:31.077Z,59.20
2018-04-23T03:02:58.082Z,59.20
2018-04-23T03:05:24.298Z,59.10
2018-04-23T03:07:51.216Z,59.10
2018-04-23T03:10:17.390Z,59.00
2018-04-23T03:12:44.354Z,59.10
2018-04-23T03:15:11.274Z,59.10
2018-04-23T03:17:37.455Z,59.00
2018-04-23T03:20:04.426Z,59.10
2018-04-23T03:22:30.687Z,59.00
2018-04-23T03:24:56.880Z,59.10
2018-04-23T03:27:24.543Z,59.10
2018-04-23T03:29:51.513Z,59.50
2018-04-23T03:32:18.468Z,59.40
2018-04-23T03:34:44.650Z,59.40
2018-04-23T03:37:10.889Z,59.50
2018-04-23T03:39:37.070Z,59.60
2018-04-23T03:42:03.473Z,59.60
2018-04-23T03:44:29.721Z,59.70
2018-04-23T03:46:55.931Z,59.80
2018-04-23T03:49:22.207Z,59.70
2018-04-23T03:51:48.379Z,59.70
2018-04-23T03:54:14.599Z,59.70
2018-04-23T03:56:41.037Z,59.70
2018-04-23T03:59:07.255Z,59.60
2018-04-23T04:01:33.490Z,59.80
2018-04-23T04:03:59.786Z,59.70
2018-04-23T04:06:26.747Z,59.70
2018-04-23T04:08:52.945Z,59.60
2018-04-23T04:11:19.125Z,59.40
2018-04-23T04:13:57.798Z,59.20
2018-04-23T04:16:36.333Z,59.30
2018-04-23T04:19:02.529Z,59.30
2018-04-23T04:21:28.747Z,59.10
2018-04-23T04:23:56.504Z,58.90
2018-04-23T04:26:22.677Z,58.90
2018-04-23T04:28:48.867Z,58.70
2018-04-23T04:31:15.979Z,58.60
2018-04-23T04:33:42.236Z,58.50
2018-04-23T04:36:08.438Z,58.40
2018-04-23T04:38:34.655Z,58.40
2018-04-23T04:41:00.919Z,58.20
2018-04-23T04:43:27.134Z,58.20
2018-04-23T04:45:53.361Z,58.20
2018-04-23T04:48:19.629Z,58.20
2018-04-23T04:50:45.815Z,58.20
2018-04-23T04:53:12.894Z,58.40
2018-04-23T04:55:39.867Z,58.40
2018-04-23T04:58:06.067Z,58.40
2018-04-23T05:00:32.315Z,58.50
2018-04-23T05:02:58.643Z,58.60
2018-04-23T05:05:25.566Z,58.70
2018-04-23T05:07:51.751Z,58.70
2018-04-23T05:10:17.940Z,58.80
2018-04-23T05:12:44.113Z,58.80
2018-04-23T05:15:10.310Z,58.90
2018-04-23T05:17:36.529Z,59.20
2018-04-23T05:20:02.731Z,59.30
2018-04-23T05:22:28.919Z,59.20
2018-04-23T05:24:55.091Z,59.30
2018-04-23T05:27:21.264Z,59.30
2018-04-23T05:29:47.452Z,59.30
2018-04-23T05:32:13.713Z,59.20
2018-04-23T05:34:39.920Z,59.20
2018-04-23T05:37:06.102Z,59.10
2018-04-23T05:39:32.291Z,59.10
2018-04-23T05:41:59.249Z,59.30
2018-04-23T05:44:25.507Z,59.20
2018-04-23T05:46:51.716Z,59.20
2018-04-23T05:49:18.634Z,59.30
2018-04-23T05:51:44.835Z,59.20
2018-04-23T05:54:10.995Z,59.20
2018-04-23T05:56:37.150Z,59.30
2018-04-23T05:59:03.362Z,60.10
2018-04-23T06:01:29.595Z,60.40
2018-04-23T06:03:55.832Z,60.80
2018-04-23T06:06:22.084Z,61.50
2018-04-23T06:08:48.308Z,61.40
2018-04-23T06:11:14.504Z,60.90
2018-04-23T06:13:40.704Z,60.00
2018-04-23T06:16:06.901Z,59.40
2018-04-23T06:18:33.879Z,59.40
2018-04-23T06:21:00.832Z,59.60
2018-04-23T06:23:27.801Z,59.60
2018-04-23T06:25:53.996Z,59.50
2018-04-23T06:28:20.260Z,59.60
2018-04-23T06:30:47.215Z,58.80
2018-04-23T06:33:14.224Z,59.30
2018-04-23T06:35:40.418Z,59.30
2018-04-23T06:38:07.501Z,58.90
2018-04-23T06:40:34.447Z,58.30
2018-04-23T06:43:00.640Z,58.20
2018-04-23T06:45:26.843Z,58.50
2018-04-23T06:47:53.027Z,58.00
2018-04-23T06:50:19.249Z,57.60
2018-04-23T06:52:45.456Z,57.40
2018-04-23T06:55:12.370Z,56.70
2018-04-23T06:57:38.563Z,56.60
2018-04-23T07:00:05.512Z,56.40
2018-04-23T07:02:32.438Z,56.20
2018-04-23T07:04:58.702Z,56.10
2018-04-23T07:07:24.864Z,55.90
2018-04-23T07:09:51.768Z,55.60
2018-04-23T07:12:17.944Z,55.50
2018-04-23T07:14:44.136Z,55.10
2018-04-23T07:17:10.298Z,55.10
2018-04-23T07:19:36.546Z,54.60
2018-04-23T07:22:04.254Z,54.90
2018-04-23T07:24:30.446Z,54.70
2018-04-23T07:26:56.622Z,54.70
2018-04-23T07:29:23.591Z,54.20
2018-04-23T07:31:49.719Z,54.20
2018-04-23T07:34:16.701Z,54.00
2018-04-23T07:36:42.863Z,53.90
2018-04-23T07:39:09.051Z,54.10
2018-04-23T07:41:35.265Z,53.90
2018-04-23T07:44:02.249Z,54.40
2018-04-23T07:46:29.188Z,54.30
2018-04-23T07:48:55.383Z,54.30
2018-04-23T07:51:21.545Z,54.40
2018-04-23T07:53:47.719Z,54.30
2018-04-23T07:56:14.670Z,54.90
2018-04-23T07:58:41.685Z,54.80
2018-04-23T08:01:07.861Z,54.80
2018-04-23T08:03:34.221Z,55.00
2018-04-23T08:06:01.141Z,55.10
2018-04-23T08:08:27.329Z,55.00
2018-04-23T08:10:53.600Z,55.40
2018-04-23T08:13:19.784Z,55.60
2018-04-23T08:15:45.966Z,55.60
2018-04-23T08:18:12.295Z,56.00
2018-04-23T08:20:38.509Z,56.50
2018-04-23T08:23:05.435Z,56.20
2018-04-23T08:25:31.663Z,56.10
2018-04-23T08:27:57.821Z,55.60
2018-04-23T08:30:24.735Z,55.10
2018-04-23T08:32:50.963Z,54.90
2018-04-23T08:35:17.155Z,54.60
2018-04-23T08:37:43.335Z,54.00
2018-04-23T08:40:10.290Z,55.00
2018-04-23T08:42:37.242Z,54.70
2018-04-23T08:45:04.186Z,55.60
2018-04-23T08:47:31.356Z,54.40
2018-04-23T08:49:58.265Z,53.70
2018-04-23T08:52:24.432Z,53.80
2018-04-23T08:54:50.702Z,52.70
2018-04-23T08:57:17.637Z,51.90
2018-04-23T08:59:43.807Z,51.80
2018-04-23T09:02:10.871Z,51.30
2018-04-23T09:04:37.785Z,51.10
2018-04-23T09:07:03.999Z,50.90
2018-04-23T09:09:30.197Z,51.30
2018-04-23T09:11:57.259Z,50.60
2018-04-23T09:14:24.161Z,50.90
2018-04-23T09:16:50.355Z,50.80
2018-04-23T09:19:17.266Z,51.60
2018-04-23T09:21:43.462Z,51.50
2018-04-23T09:24:09.625Z,50.90
2018-04-23T09:26:35.843Z,51.30
2018-04-23T09:29:02.041Z,50.30
2018-04-23T09:31:28.247Z,50.20
2018-04-23T09:33:54.417Z,50.30
2018-04-23T09:36:20.613Z,50.00
2018-04-23T09:38:46.849Z,49.60
2018-04-23T09:41:13.047Z,49.30
2018-04-23T09:43:39.236Z,49.20
2018-04-23T09:46:05.491Z,47.90
2018-04-23T09:48:31.696Z,47.50
2018-04-23T09:50:58.598Z,46.90
2018-04-23T09:53:24.777Z,46.70
2018-04-23T09:55:51.732Z,46.20
2018-04-23T09:58:18.067Z,46.20
2018-04-23T10:00:44.998Z,46.30
2018-04-23T10:03:11.189Z,46.10
2018-04-23T10:05:37.379Z,46.30
2018-04-23T10:08:03.591Z,46.70
2018-04-23T10:10:29.770Z,47.60
2018-04-23T10:12:56.078Z,47.80
2018-04-23T10:15:22.314Z,47.00
2018-04-23T10:17:48.506Z,47.00
2018-04-23T10:20:15.428Z,47.50
2018-04-23T10:22:41.620Z,47.40
2018-04-23T10:25:08.515Z,47.10
2018-04-23T10:27:34.730Z,47.00
2018-04-23T10:30:00.924Z,46.70
2018-04-23T10:32:27.191Z,46.70
2018-04-23T10:34:54.107Z,46.00
2018-04-23T10:37:20.292Z,46.00
2018-04-23T10:39:46.580Z,46.60
2018-04-23T10:42:12.751Z,46.60
2018-04-23T10:44:39.109Z,46.10
2018-04-23T10:47:05.328Z,46.10
2018-04-23T10:49:31.498Z,45.10
2018-04-23T10:51:57.775Z,44.30
2018-04-23T10:54:23.996Z,44.60
2018-04-23T10:56:50.181Z,44.50
2018-04-23T10:59:16.414Z,45.00
2018-04-23T11:01:42.597Z,45.20
2018-04-23T11:04:08.792Z,44.50
2018-04-23T11:06:35.046Z,44.60
2018-04-23T11:09:02.024Z,45.70
2018-04-23T11:11:28.213Z,45.70
2018-04-23T11:13:54.391Z,44.60
2018-04-23T11:16:20.578Z,44.30
2018-04-23T11:18:46.766Z,44.80
2018-04-23T11:21:12.940Z,45.10
2018-04-23T11:23:39.111Z,44.40
2018-04-23T11:26:05.315Z,45.20
2018-04-23T11:28:31.500Z,45.40
2018-04-23T11:30:57.678Z,45.90
2018-04-23T11:33:24.577Z,45.10
2018-04-23T11:35:50.748Z,45.00
2018-04-23T11:38:16.929Z,44.90
2018-04-23T11:40:43.108Z,45.30
2018-04-23T11:43:09.322Z,44.50
2018-04-23T11:45:35.526Z,44.20
2018-04-23T11:48:02.474Z,43.60
2018-04-23T11:50:29.436Z,44.10
2018-04-23T11:52:55.623Z,43.40
2018-04-23T11:55:21.874Z,44.20
2018-04-23T11:57:48.109Z,43.30
2018-04-23T12:00:14.321Z,43.20
2018-04-23T12:02:41.228Z,43.30
2018-04-23T12:05:07.500Z,43.30
2018-04-23T12:07:34.427Z,44.10
2018-04-23T12:10:00.647Z,44.00
2018-04-23T12:12:26.845Z,43.40
2018-04-23T12:14:53.779Z,43.50
2018-04-23T12:17:19.979Z,43.40
2018-04-23T12:19:46.183Z,43.20
2018-04-23T12:22:13.098Z,42.60
2018-04-23T12:24:40.197Z,42.00
2018-04-23T12:27:07.137Z,41.60
2018-04-23T12:29:33.351Z,41.40
2018-04-23T12:32:00.287Z,41.40
2018-04-23T12:34:26.482Z,41.30
2018-04-23T12:36:53.667Z,41.80
2018-04-23T12:39:19.870Z,41.80
2018-04-23T12:41:47.990Z,41.90
2018-04-23T12:44:14.271Z,42.20
2018-04-23T12:46:40.777Z,41.80
2018-04-23T12:49:07.203Z,41.50
2018-04-23T12:51:34.977Z,39.90
2018-04-23T12:54:01.173Z,39.90
2018-04-23T12:56:27.407Z,39.90
2018-04-23T12:58:53.671Z,39.30
2018-04-23T13:01:19.891Z,39.10
2018-04-23T13:03:46.136Z,39.70
2018-04-23T13:06:13.340Z,39.20
2018-04-23T13:08:40.269Z,39.80
2018-04-23T13:11:07.247Z,40.50
2018-04-23T13:13:33.464Z,40.30
2018-04-23T13:15:59.623Z,39.10
2018-04-23T13:18:25.873Z,38.40
2018-04-23T13:20:52.080Z,38.50
2018-04-23T13:23:18.495Z,37.80
2018-04-23T13:25:44.716Z,36.90
2018-04-23T13:28:11.676Z,37.20
2018-04-23T13:30:37.848Z,37.10
2018-04-23T13:33:11.211Z,36.70
2018-04-23T13:35:37.435Z,36.50
2018-04-23T13:38:03.965Z,36.60
2018-04-23T13:40:30.195Z,37.40
2018-04-23T13:42:56.381Z,37.70
2018-04-23T13:45:23.320Z,37.90
2018-04-23T13:47:50.283Z,36.60
2018-04-23T13:50:16.546Z,36.50
2018-04-23T13:52:42.711Z,37.10
2018-04-23T13:55:08.882Z,37.50
2018-04-23T13:57:35.091Z,37.80
2018-04-23T14:00:01.272Z,37.50
2018-04-23T14:02:28.205Z,36.10
2018-04-23T14:04:54.392Z,36.10
2018-04-23T14:07:20.575Z,36.50
2018-04-23T14:09:46.889Z,36.90
2018-04-23T14:12:13.096Z,37.50
2018-04-23T14:14:39.277Z,37.40
2018-04-23T14:17:05.487Z,36.60
2018-04-23T14:19:31.721Z,37.00
2018-04-23T14:21:58.088Z,37.90
2018-04-23T14:24:24.270Z,38.40
2018-04-23T14:26:50.461Z,38.50
2018-04-23T14:29:16.737Z,39.00
2018-04-23T14:31:42.959Z,40.00
2018-04-23T14:34:09.974Z,39.80
2018-04-23T14:36:36.984Z,40.10
2018-04-23T14:39:03.238Z,40.00
2018-04-23T14:41:29.435Z,40.90
2018-04-23T14:43:56.674Z,40.20
2018-04-23T14:46:23.870Z,40.30
2018-04-23T14:48:50.781Z,40.80
2018-04-23T14:51:17.268Z,40.80
2018-04-23T14:53:43.507Z,41.00
2018-04-23T14:56:09.747Z,41.30
2018-04-23T14:58:35.940Z,40.60
2018-04-23T15:01:02.179Z,40.90
2018-04-23T15:03:28.390Z,41.00
2018-04-23T15:05:54.602Z,40.30
2018-04-23T15:08:22.302Z,40.80
2018-04-23T15:10:48.547Z,40.80
2018-04-23T15:13:14.722Z,40.30
2018-04-23T15:15:40.918Z,40.60
2018-04-23T15:18:07.114Z,39.70
2018-04-23T15:20:33.590Z,39.40
2018-04-23T15:22:59.811Z,39.90
2018-04-23T15:25:26.734Z,40.50
2018-04-23T15:27:52.954Z,40.20
2018-04-23T15:30:19.151Z,40.30
2018-04-23T15:32:45.330Z,40.00
2018-04-23T15:35:11.504Z,40.40
2018-04-23T15:37:37.694Z,40.40
2018-04-23T15:40:03.919Z,40.80
2018-04-23T15:42:30.115Z,40.80
2018-04-23T15:44:56.506Z,40.40
2018-04-23T15:47:23.435Z,40.20
2018-04-23T15:49:49.610Z,40.10
2018-04-23T15:52:15.854Z,40.00
2018-04-23T15:54:42.038Z,40.20
2018-04-23T15:57:08.262Z,40.00
2018-04-23T15:59:34.548Z,39.70
2018-04-23T16:02:00.767Z,39.10
2018-04-23T16:04:28.412Z,39.20
2018-04-23T16:06:55.423Z,39.30
2018-04-23T16:09:22.406Z,38.70
2018-04-23T16:11:48.603Z,38.70
2018-04-23T16:14:14.795Z,38.90
2018-04-23T16:16:40.985Z,39.50
2018-04-23T16:19:07.182Z,39.50
2018-04-23T16:21:33.434Z,38.80
2018-04-23T16:23:59.629Z,39.10
2018-04-23T16:26:26.543Z,39.00
2018-04-23T16:28:52.752Z,38.90
2018-04-23T16:31:18.992Z,39.20
2018-04-23T16:33:45.191Z,39.30
2018-04-23T16:36:11.366Z,39.20
2018-04-23T16:38:38.978Z,39.60
2018-04-23T16:41:05.311Z,39.50
2018-04-23T16:43:31.616Z,39.70
2018-04-23T16:45:57.795Z,39.80
2018-04-23T16:48:23.978Z,39.60
2018-04-23T16:50:50.929Z,38.10
2018-04-23T16:53:17.894Z,38.20
2018-04-23T16:55:44.071Z,38.10
2018-04-23T16:58:10.260Z,38.80
2018-04-23T17:00:36.479Z,39.50
2018-04-23T17:03:02.739Z,39.90
2018-04-23T17:05:29.967Z,39.80
2018-04-23T17:07:56.208Z,39.70
2018-04-23T17:10:22.386Z,39.70
2018-04-23T17:12:48.574Z,39.90
2018-04-23T17:15:14.756Z,40.20
2018-04-23T17:17:41.086Z,39.90
2018-04-23T17:20:07.365Z,40.20
2018-04-23T17:22:33.603Z,40.20
2018-04-23T17:24:59.860Z,40.00
2018-04-23T17:27:26.038Z,40.30
2018-04-23T17:29:52.182Z,40.20
2018-04-23T17:32:18.383Z,40.50
2018-04-23T17:34:44.556Z,40.80
2018-04-23T17:37:10.738Z,41.00
2018-04-23T17:39:37.701Z,41.10
2018-04-23T17:42:03.942Z,41.00
2018-04-23T17:44:30.862Z,41.50
2018-04-23T17:46:57.066Z,41.40
2018-04-23T17:49:23.239Z,41.50
2018-04-23T17:51:49.408Z,41.40
2018-04-23T17:54:16.334Z,41.90
2018-04-23T17:56:42.503Z,41.50
2018-04-23T17:59:08.651Z,41.70
2018-04-23T18:01:35.732Z,42.00
2018-04-23T18:04:02.745Z,42.10
2018-04-23T18:06:29.682Z,42.60
2018-04-23T18:08:55.886Z,42.50
2018-04-23T18:11:22.060Z,42.50
2018-04-23T18:13:48.233Z,42.50
2018-04-23T18:16:14.410Z,42.60
2018-04-23T18:18:41.291Z,42.80
2018-04-23T18:21:07.528Z,42.70
2018-04-23T18:23:33.793Z,43.00
2018-04-23T18:25:59.966Z,43.10
2018-04-23T18:28:26.133Z,43.10
2018-04-23T18:30:53.037Z,43.40
2018-04-23T18:33:19.187Z,43.40
2018-04-23T18:35:45.363Z,43.40
2018-04-23T18:38:12.305Z,43.70
2018-04-23T18:40:39.202Z,43.80
2018-04-23T18:43:05.385Z,43.70
2018-04-23T18:45:31.554Z,43.90
2018-04-23T18:47:58.060Z,43.80
2018-04-23T18:50:24.975Z,44.10
2018-04-23T18:52:51.107Z,44.00
2018-04-23T18:55:17.366Z,44.10
2018-04-23T18:57:44.219Z,44.30
2018-04-23T19:00:10.423Z,44.30
2018-04-23T19:02:36.754Z,44.40
2018-04-23T19:05:04.427Z,44.50
2018-04-23T19:07:30.615Z,44.60
2018-04-23T19:09:56.813Z,44.70
2018-04-23T19:12:23.082Z,44.80
2018-04-23T19:14:49.238Z,45.10
2018-04-23T19:17:15.395Z,45.20
2018-04-23T19:19:42.295Z,45.40
2018-04-23T19:22:09.212Z,45.30
2018-04-23T19:24:35.404Z,45.30
2018-04-23T19:27:01.546Z,45.60
2018-04-23T19:29:27.788Z,45.80
2018-04-23T19:31:53.960Z,45.90
2018-04-23T19:34:20.136Z,46.00
2018-04-23T19:36:46.298Z,46.00
2018-04-23T19:39:12.478Z,46.30
2018-04-23T19:41:40.161Z,46.60
2018-04-23T19:44:06.324Z,46.50
2018-04-23T19:46:32.528Z,46.40
2018-04-23T19:48:58.715Z,46.60
2018-04-23T19:51:25.613Z,46.70
2018-04-23T19:53:51.792Z,46.70
2018-04-23T19:56:18.153Z,47.10
2018-04-23T19:58:45.034Z,47.10
2018-04-23T20:01:11.186Z,47.10
2018-04-23T20:03:37.404Z,47.30
2018-04-23T20:06:03.732Z,47.40
2018-04-23T20:08:29.906Z,47.60
2018-04-23T20:10:56.034Z,47.80
2018-04-23T20:13:22.178Z,47.90
2018-04-23T20:15:48.354Z,48.20
2018-04-23T20:18:14.494Z,48.60
2018-04-23T20:20:40.682Z,48.50
2018-04-23T20:23:07.253Z,48.50
2018-04-23T20:25:33.356Z,48.70
2018-04-23T20:27:59.506Z,48.80
2018-04-23T20:30:25.745Z,48.90
2018-04-23T20:32:52.010Z,49.00
2018-04-23T20:35:18.971Z,49.30
2018-04-23T20:37:45.103Z,49.30
2018-04-23T20:40:11.255Z,49.20
2018-04-23T20:42:37.446Z,49.30
2018-04-23T20:45:03.738Z,49.40
2018-04-23T20:47:30.719Z,49.30
2018-04-23T20:49:57.636Z,49.40
2018-04-23T20:52:23.799Z,49.40
2018-04-23T20:54:49.982Z,49.40
2018-04-23T20:57:18.067Z,49.60
2018-04-23T20:59:44.956Z,49.70
2018-04-23T21:02:11.121Z,49.70
2018-04-23T21:04:37.306Z,49.70
2018-04-23T21:07:03.612Z,49.90
2018-04-23T21:09:29.893Z,50.10
2018-04-23T21:11:56.300Z,50.00
2018-04-23T21:14:22.484Z,50.10
2018-04-23T21:16:48.663Z,50.40
2018-04-23T21:19:14.802Z,50.50
2018-04-23T21:21:40.979Z,50.60
2018-04-23T21:24:08.747Z,50.80
2018-04-23T21:26:35.715Z,51.10
2018-04-23T21:29:01.948Z,51.10
2018-04-23T21:31:28.220Z,50.90
2018-04-23T21:33:54.787Z,51.00
2018-04-23T21:36:20.966Z,51.20
2018-04-23T21:38:47.123Z,51.20
2018-04-23T21:41:13.338Z,51.30
2018-04-23T21:43:41.062Z,51.50
2018-04-23T21:46:07.284Z,51.50
2018-04-23T21:48:33.594Z,51.60
2018-04-23T21:51:00.537Z,51.80
2018-04-23T21:53:26.748Z,51.80
2018-04-23T21:55:53.036Z,51.90
2018-04-23T21:58:19.223Z,51.90
2018-04-23T22:00:45.358Z,53.00
2018-04-23T22:03:11.539Z,52.50
2018-04-23T22:05:37.783Z,52.60
2018-04-23T22:08:04.679Z,52.70
2018-04-23T22:10:30.991Z,52.80
2018-04-23T22:12:57.146Z,53.00
2018-04-23T22:15:23.343Z,53.60
2018-04-23T22:17:49.605Z,53.20
2018-04-23T22:20:16.659Z,53.90
2018-04-23T22:22:42.808Z,53.90
2018-04-23T22:25:09.014Z,53.20
2018-04-23T22:27:35.427Z,53.40
2018-04-23T22:30:01.639Z,53.40
2018-04-23T22:32:28.019Z,53.60
2018-04-23T22:34:54.198Z,54.00
2018-04-23T22:37:20.361Z,54.00
2018-04-23T22:39:47.271Z,54.10
2018-04-23T22:42:13.451Z,54.10
2018-04-23T22:44:39.619Z,54.00
2018-04-23T22:47:05.843Z,54.10
2018-04-23T22:49:32.804Z,54.30
2018-04-23T22:51:59.004Z,54.30
2018-04-23T22:54:25.181Z,54.40
2018-04-23T22:56:51.374Z,54.40
2018-04-23T22:59:17.808Z,54.40
2018-04-23T23:01:44.759Z,54.50
2018-04-23T23:04:10.935Z,54.30
2018-04-23T23:06:37.906Z,54.50
2018-04-23T23:09:05.077Z,54.50
2018-04-23T23:11:31.311Z,54.90
2018-04-23T23:13:57.576Z,55.10
2018-04-23T23:16:23.762Z,55.40
2018-04-23T23:18:49.985Z,55.10
2018-04-23T23:21:16.948Z,55.10
2018-04-23T23:23:43.144Z,55.10
2018-04-23T23:26:09.327Z,55.30
2018-04-23T23:28:35.540Z,55.10
2018-04-23T23:31:01.760Z,55.10
2018-04-23T23:33:27.969Z,55.10
2018-04-23T23:35:54.171Z,55.00
2018-04-23T23:38:20.368Z,55.00
2018-04-23T23:40:46.611Z,54.90
2018-04-23T23:43:12.802Z,55.00
2018-04-23T23:45:39.017Z,54.90
2018-04-23T23:48:05.252Z,54.70
2018-04-23T23:50:31.489Z,55.30
2018-04-23T23:52:57.729Z,54.50
2018-04-23T23:55:23.947Z,54.50
2018-04-23T23:57:50.152Z,54.50
